createdAt,value
2019-02-02T00:00:35.751Z,60.28
2019-02-02T00:03:04.388Z,60.05
2019-02-02T00:05:32.868Z,60.65
2019-02-02T00:08:01.401Z,60.23
2019-02-02T00:10:30.092Z,61.63
2019-02-02T00:12:58.524Z,58.63
2019-02-02T00:15:26.923Z,57.73
2019-02-02T00:17:56.568Z,57.65
2019-02-02T00:20:25.115Z,60.65
2019-02-02T00:22:53.848Z,60.88
2019-02-02T00:25:22.334Z,57.65
2019-02-02T00:27:52.012Z,58.60
2019-02-02T00:30:20.586Z,59.48
2019-02-02T00:32:49.017Z,57.43
2019-02-02T00:35:17.411Z,59.58
2019-02-02T00:37:45.842Z,56.80
2019-02-02T00:40:19.331Z,60.38
2019-02-02T00:42:47.799Z,60.45
2019-02-02T00:45:20.888Z,59.35
2019-02-02T00:47:49.416Z,57.03
2019-02-02T00:50:19.319Z,59.63
2019-02-02T00:52:48.069Z,57.60
2019-02-02T00:55:17.919Z,60.17
2019-02-02T00:57:53.617Z,58.38
2019-02-02T01:00:21.374Z,57.95
2019-02-02T01:02:49.848Z,60.15
2019-02-02T01:05:22.640Z,58.40
2019-02-02T01:07:52.204Z,58.37
2019-02-02T01:10:26.396Z,56.68
2019-02-02T01:12:54.930Z,57.97
2019-02-02T01:15:23.436Z,57.83
2019-02-02T01:17:52.243Z,57.33
2019-02-02T01:20:21.714Z,57.53
2019-02-02T01:22:50.196Z,58.00
2019-02-02T01:25:18.980Z,57.38
2019-02-02T01:27:47.448Z,57.33
2019-02-02T01:30:18.603Z,57.55
2019-02-02T01:32:47.253Z,56.42
2019-02-02T01:35:17.915Z,57.95
2019-02-02T01:37:46.371Z,56.90
2019-02-02T01:40:23.283Z,56.23
2019-02-02T01:42:51.685Z,55.50
2019-02-02T01:45:25.795Z,58.60
2019-02-02T01:47:54.644Z,56.35
2019-02-02T01:50:25.775Z,58.52
2019-02-02T01:52:54.159Z,57.67
2019-02-02T01:55:22.639Z,54.75
2019-02-02T01:57:51.053Z,55.37
2019-02-02T02:00:30.574Z,57.50
2019-02-02T02:02:59.400Z,57.30
2019-02-02T02:05:27.810Z,56.23
2019-02-02T02:07:56.215Z,58.83
2019-02-02T02:10:24.819Z,58.70
2019-02-02T02:12:53.233Z,57.78
2019-02-02T02:15:21.811Z,61.18
2019-02-02T02:17:50.407Z,59.53
2019-02-02T02:20:20.049Z,59.80
2019-02-02T02:22:49.892Z,59.45
2019-02-02T02:25:19.899Z,59.53
2019-02-02T02:27:49.178Z,60.12
2019-02-02T02:30:22.476Z,59.80
2019-02-02T02:32:52.316Z,58.02
2019-02-02T02:35:20.892Z,61.05
2019-02-02T02:37:49.331Z,62.03
2019-02-02T02:40:24.519Z,58.75
2019-02-02T02:42:53.417Z,58.35
2019-02-02T02:45:21.888Z,59.83
2019-02-02T02:47:50.605Z,60.98
2019-02-02T02:50:21.285Z,63.60
2019-02-02T02:52:50.017Z,62.58
2019-02-02T02:55:18.454Z,59.20
2019-02-02T02:57:47.400Z,60.88
2019-02-02T03:00:24.345Z,59.23
2019-02-02T03:02:52.849Z,58.00
2019-02-02T03:05:21.583Z,59.33
2019-02-02T03:07:51.439Z,59.40
2019-02-02T03:10:21.965Z,58.58
2019-02-02T03:12:50.501Z,60.00
2019-02-02T03:15:19.740Z,63.10
2019-02-02T03:17:49.720Z,59.83
2019-02-02T03:20:18.124Z,57.27
2019-02-02T03:22:46.817Z,59.45
2019-02-02T03:25:17.353Z,62.48
2019-02-02T03:27:45.840Z,60.55
2019-02-02T03:30:16.893Z,63.75
2019-02-02T03:32:45.400Z,61.45
2019-02-02T03:35:16.019Z,62.45
2019-02-02T03:37:44.453Z,59.30
2019-02-02T03:40:15.401Z,61.45
2019-02-02T03:42:43.829Z,61.48
2019-02-02T03:45:15.083Z,61.83
2019-02-02T03:47:43.588Z,60.53
2019-02-02T03:50:13.106Z,60.58
2019-02-02T03:52:41.562Z,62.15
2019-02-02T03:55:14.724Z,59.85
2019-02-02T03:57:43.312Z,60.58
2019-02-02T04:00:14.792Z,61.53
2019-02-02T04:02:43.410Z,58.63
2019-02-02T04:05:14.471Z,59.15
2019-02-02T04:07:42.884Z,60.85
2019-02-02T04:10:12.822Z,60.23
2019-02-02T04:12:41.608Z,61.28
2019-02-02T04:15:12.274Z,60.65
2019-02-02T04:17:40.691Z,60.40
2019-02-02T04:20:14.612Z,59.38
2019-02-02T04:22:43.103Z,60.83
2019-02-02T04:25:11.665Z,59.35
2019-02-02T04:27:40.055Z,60.10
2019-02-02T04:30:19.573Z,62.15
2019-02-02T04:32:48.046Z,60.95
2019-02-02T04:35:16.462Z,59.35
2019-02-02T04:37:44.872Z,60.40
2019-02-02T04:40:15.005Z,59.55
2019-02-02T04:42:43.608Z,59.88
2019-02-02T04:45:14.607Z,61.65
2019-02-02T04:47:43.016Z,61.75
2019-02-02T04:50:16.181Z,62.78
2019-02-02T04:52:44.636Z,62.17
2019-02-02T04:55:14.779Z,63.30
2019-02-02T04:57:43.184Z,60.95
2019-02-02T05:00:15.039Z,61.25
2019-02-02T05:02:43.436Z,61.13
2019-02-02T05:05:14.086Z,62.43
2019-02-02T05:07:42.480Z,62.73
2019-02-02T05:10:14.208Z,63.40
2019-02-02T05:12:42.631Z,63.65
2019-02-02T05:15:11.035Z,61.73
2019-02-02T05:17:39.436Z,61.02
2019-02-02T05:20:11.091Z,64.05
2019-02-02T05:22:39.655Z,60.85
2019-02-02T05:25:09.280Z,63.15
2019-02-02T05:27:37.679Z,63.87
2019-02-02T05:30:24.011Z,64.90
2019-02-02T05:32:52.419Z,62.93
2019-02-02T05:35:20.847Z,63.23
2019-02-02T05:37:49.251Z,64.77
2019-02-02T05:40:19.696Z,64.82
2019-02-02T05:42:48.341Z,65.52
2019-02-02T05:45:19.128Z,65.65
2019-02-02T05:47:47.555Z,62.15
2019-02-02T05:50:18.183Z,63.17
2019-02-02T05:52:46.586Z,64.27
2019-02-02T05:55:16.931Z,65.10
2019-02-02T05:57:45.356Z,65.70
2019-02-02T06:00:18.402Z,63.15
2019-02-02T06:02:46.875Z,64.10
2019-02-02T06:05:15.756Z,64.90
2019-02-02T06:07:44.200Z,63.68
2019-02-02T06:10:15.457Z,65.42
2019-02-02T06:12:43.951Z,67.25
2019-02-02T06:15:33.217Z,64.30
2019-02-02T06:18:01.897Z,65.37
2019-02-02T06:20:30.299Z,64.12
2019-02-02T06:22:59.021Z,64.85
2019-02-02T06:25:27.448Z,63.73
2019-02-02T06:27:55.839Z,65.62
2019-02-02T06:30:25.387Z,66.77
2019-02-02T06:32:53.812Z,66.90
2019-02-02T06:35:22.207Z,65.35
2019-02-02T06:37:50.711Z,66.57
2019-02-02T06:40:19.543Z,65.85
2019-02-02T06:42:47.935Z,66.55
2019-02-02T06:45:22.700Z,66.75
2019-02-02T06:47:51.131Z,68.30
2019-02-02T06:50:19.528Z,67.12
2019-02-02T06:52:48.251Z,68.25
2019-02-02T06:55:17.614Z,69.10
2019-02-02T06:57:46.059Z,68.30
2019-02-02T07:00:26.360Z,66.20
2019-02-02T07:02:53.872Z,68.85
2019-02-02T07:05:22.404Z,66.80
2019-02-02T07:07:50.825Z,67.92
2019-02-02T07:10:24.601Z,68.57
2019-02-02T07:12:53.003Z,69.15
2019-02-02T07:15:24.222Z,68.62
2019-02-02T07:17:52.614Z,69.30
2019-02-02T07:20:21.152Z,67.80
2019-02-02T07:22:49.640Z,68.00
2019-02-02T07:25:18.380Z,69.50
2019-02-02T07:27:46.783Z,68.35
2019-02-02T07:30:28.227Z,71.80
2019-02-02T07:32:47.859Z,67.53
2019-02-02T07:35:16.733Z,71.25
2019-02-02T07:37:45.150Z,69.85
2019-02-02T07:40:16.064Z,69.75
2019-02-02T07:42:44.724Z,72.22
2019-02-02T07:45:16.143Z,70.75
2019-02-02T07:47:44.543Z,71.17
2019-02-02T07:50:15.320Z,70.33
2019-02-02T07:52:44.096Z,71.97
2019-02-02T07:55:15.263Z,73.28
2019-02-02T07:57:43.670Z,71.25
2019-02-02T08:00:40.273Z,70.78
2019-02-02T08:03:00.733Z,71.25
2019-02-02T08:05:29.172Z,68.78
2019-02-02T08:07:57.569Z,71.10
2019-02-02T08:10:25.999Z,69.42
2019-02-02T08:12:54.433Z,69.85
2019-02-02T08:15:25.354Z,70.70
2019-02-02T08:17:53.743Z,70.80
2019-02-02T08:20:22.234Z,71.28
2019-02-02T08:22:56.751Z,70.25
2019-02-02T08:25:25.209Z,72.53
2019-02-02T08:27:53.684Z,69.95
2019-02-02T08:30:30.767Z,72.42
2019-02-02T08:32:59.173Z,71.80
2019-02-02T08:35:27.580Z,66.37
2019-02-02T08:37:56.261Z,73.90
2019-02-02T08:40:24.703Z,72.45
2019-02-02T08:42:53.120Z,69.05
2019-02-02T08:45:21.720Z,72.37
2019-02-02T08:47:50.137Z,73.42
2019-02-02T08:50:21.365Z,71.70
2019-02-02T08:52:49.760Z,72.72
2019-02-02T08:55:18.299Z,74.90
2019-02-02T08:57:46.806Z,76.45
2019-02-02T09:00:20.048Z,75.35
2019-02-02T09:02:48.495Z,71.50
2019-02-02T09:05:22.370Z,76.77
2019-02-02T09:07:50.764Z,78.25
2019-02-02T09:10:21.789Z,80.05
2019-02-02T09:12:50.202Z,75.67
2019-02-02T09:15:19.542Z,75.45
2019-02-02T09:17:48.691Z,77.72
2019-02-02T09:20:17.178Z,78.13
2019-02-02T09:22:46.628Z,78.07
2019-02-02T09:25:17.135Z,78.52
2019-02-02T09:27:45.553Z,76.72
2019-02-02T09:30:19.150Z,78.33
2019-02-02T09:32:51.264Z,77.87
2019-02-02T09:35:19.691Z,78.33
2019-02-02T09:37:48.150Z,80.67
2019-02-02T09:40:19.619Z,78.78
2019-02-02T09:42:48.158Z,81.20
2019-02-02T09:45:19.161Z,78.85
2019-02-02T09:47:47.728Z,80.75
2019-02-02T09:50:18.691Z,79.85
2019-02-02T09:52:47.098Z,81.63
2019-02-02T09:55:18.343Z,81.65
2019-02-02T09:57:47.023Z,75.62
2019-02-02T10:00:20.756Z,76.92
2019-02-02T10:02:49.168Z,75.32
2019-02-02T10:05:19.262Z,74.75
2019-02-02T10:07:48.051Z,75.87
2019-02-02T10:10:21.260Z,78.35
2019-02-02T10:12:49.680Z,77.27
2019-02-02T10:15:18.727Z,75.75
2019-02-02T10:17:49.620Z,75.70
2019-02-02T10:20:19.611Z,77.75
2019-02-02T10:22:48.112Z,79.73
2019-02-02T10:25:22.174Z,80.70
2019-02-02T10:27:50.691Z,83.47
2019-02-02T10:30:29.793Z,77.72
2019-02-02T10:32:58.276Z,79.00
2019-02-02T10:35:26.720Z,77.90
2019-02-02T10:37:55.544Z,78.92
2019-02-02T10:40:24.011Z,76.15
2019-02-02T10:42:52.439Z,76.67
2019-02-02T10:45:21.010Z,77.55
2019-02-02T10:47:49.763Z,77.95
2019-02-02T10:50:22.529Z,77.87
2019-02-02T10:52:51.194Z,81.35
2019-02-02T10:55:19.700Z,80.55
2019-02-02T10:57:48.180Z,81.67
2019-02-02T11:00:22.043Z,81.92
2019-02-02T11:02:50.460Z,82.53
2019-02-02T11:05:19.028Z,82.10
2019-02-02T11:07:47.464Z,83.92
2019-02-02T11:10:18.927Z,81.63
2019-02-02T11:12:47.667Z,82.92
2019-02-02T11:15:18.749Z,85.12
2019-02-02T11:17:47.683Z,79.53
2019-02-02T11:20:18.670Z,79.47
2019-02-02T11:22:47.133Z,76.37
2019-02-02T11:25:15.889Z,80.12
2019-02-02T11:27:44.312Z,80.40
2019-02-02T11:30:17.570Z,80.42
2019-02-02T11:32:46.416Z,80.15
2019-02-02T11:35:17.217Z,79.47
2019-02-02T11:37:45.696Z,78.78
2019-02-02T11:40:25.881Z,79.10
2019-02-02T11:42:54.463Z,77.85
2019-02-02T11:45:22.921Z,77.75
2019-02-02T11:47:51.355Z,80.25
2019-02-02T11:50:20.995Z,79.37
2019-02-02T11:52:49.759Z,81.23
2019-02-02T11:55:20.572Z,79.12
2019-02-02T11:57:49.976Z,77.30
2019-02-02T12:00:30.562Z,78.90
2019-02-02T12:02:58.975Z,80.35
2019-02-02T12:05:27.407Z,78.35
2019-02-02T12:07:55.875Z,80.15
2019-02-02T12:10:29.868Z,80.85
2019-02-02T12:12:58.448Z,76.75
2019-02-02T12:15:27.115Z,76.55
2019-02-02T12:17:55.699Z,77.25
2019-02-02T12:20:25.462Z,78.22
2019-02-02T12:22:53.860Z,79.85
2019-02-02T12:25:22.636Z,78.50
2019-02-02T12:27:51.031Z,76.57
2019-02-02T12:30:28.297Z,76.05
2019-02-02T12:32:56.700Z,79.53
2019-02-02T12:35:26.983Z,76.30
2019-02-02T12:37:55.560Z,76.62
2019-02-02T12:40:25.720Z,79.40
2019-02-02T12:42:54.120Z,74.77
2019-02-02T12:45:34.204Z,78.02
2019-02-02T12:48:02.683Z,76.20
2019-02-02T12:50:31.120Z,75.32
2019-02-02T12:52:59.515Z,77.05
2019-02-02T12:55:27.921Z,75.17
2019-02-02T12:57:56.493Z,75.12
2019-02-02T13:00:25.257Z,76.02
2019-02-02T13:02:54.174Z,75.08
2019-02-02T13:05:23.954Z,77.95
2019-02-02T13:07:52.648Z,76.00
2019-02-02T13:10:24.578Z,75.35
2019-02-02T13:12:53.452Z,78.15
2019-02-02T13:15:22.066Z,74.75
2019-02-02T13:17:50.463Z,76.15
2019-02-02T13:20:19.727Z,73.85
2019-02-02T13:22:49.224Z,69.87
2019-02-02T13:25:23.067Z,72.87
2019-02-02T13:27:52.365Z,71.27
2019-02-02T13:30:23.467Z,76.45
2019-02-02T13:32:51.935Z,71.95
2019-02-02T13:35:22.095Z,70.72
2019-02-02T13:37:50.516Z,76.40
2019-02-02T13:40:21.256Z,74.47
2019-02-02T13:42:49.685Z,72.92
2019-02-02T13:45:20.411Z,72.42
2019-02-02T13:47:49.219Z,70.55
2019-02-02T13:50:18.876Z,73.80
2019-02-02T13:52:48.728Z,72.10
2019-02-02T13:55:17.156Z,74.42
2019-02-02T13:57:45.582Z,71.82
2019-02-02T14:00:25.441Z,69.92
2019-02-02T14:03:02.287Z,71.92
2019-02-02T14:05:24.362Z,73.78
2019-02-02T14:07:53.041Z,70.28
2019-02-02T14:10:26.163Z,71.92
2019-02-02T14:12:54.579Z,73.50
2019-02-02T14:15:22.997Z,73.10
2019-02-02T14:17:51.438Z,69.35
2019-02-02T14:20:20.003Z,72.25
2019-02-02T14:22:48.431Z,70.95
2019-02-02T14:25:17.208Z,69.85
2019-02-02T14:27:45.633Z,70.62
2019-02-02T14:30:17.147Z,69.45
2019-02-02T14:32:45.565Z,70.47
2019-02-02T14:35:21.780Z,74.22
2019-02-02T14:37:50.209Z,68.55
2019-02-02T14:40:20.254Z,68.65
2019-02-02T14:42:48.655Z,66.97
2019-02-02T14:45:19.419Z,68.65
2019-02-02T14:47:47.889Z,71.42
2019-02-02T14:50:19.386Z,70.90
2019-02-02T14:52:48.150Z,71.62
2019-02-02T14:55:18.827Z,71.70
2019-02-02T14:57:47.233Z,72.42
2019-02-02T15:00:17.889Z,72.78
2019-02-02T15:02:46.476Z,149.77
2019-02-02T15:05:15.072Z,70.00
2019-02-02T15:07:43.531Z,70.07
2019-02-02T15:10:13.789Z,69.50
2019-02-02T15:12:42.223Z,71.67
2019-02-02T15:15:15.392Z,69.67
2019-02-02T15:17:44.608Z,68.80
2019-02-02T15:20:27.961Z,70.20
2019-02-02T15:22:56.369Z,68.25
2019-02-02T15:25:24.788Z,67.72
2019-02-02T15:27:53.200Z,69.22
2019-02-02T15:30:27.507Z,72.33
2019-02-02T15:32:56.080Z,67.85
2019-02-02T15:35:24.557Z,72.13
2019-02-02T15:37:52.964Z,68.63
2019-02-02T15:40:23.203Z,72.80
2019-02-02T15:42:51.609Z,71.47
2019-02-02T15:45:28.467Z,74.62
2019-02-02T15:47:56.876Z,74.47
2019-02-02T15:50:25.285Z,73.92
2019-02-02T15:52:53.691Z,76.57
2019-02-02T15:55:23.957Z,74.53
2019-02-02T15:57:52.357Z,74.35
2019-02-02T16:00:23.377Z,76.55
2019-02-02T16:02:51.854Z,76.80
2019-02-02T16:05:21.196Z,78.02
2019-02-02T16:07:49.641Z,79.35
2019-02-02T16:10:26.435Z,76.35
2019-02-02T16:12:55.184Z,80.00
2019-02-02T16:15:23.661Z,75.83
2019-02-02T16:17:52.068Z,76.25
2019-02-02T16:20:23.544Z,78.00
2019-02-02T16:22:52.176Z,77.55
2019-02-02T16:25:20.676Z,77.58
2019-02-02T16:27:49.076Z,75.03
2019-02-02T16:30:20.202Z,75.28
2019-02-02T16:32:48.650Z,72.75
2019-02-02T16:35:17.264Z,76.62
2019-02-02T16:37:45.764Z,77.17
2019-02-02T16:40:19.271Z,74.00
2019-02-02T16:42:48.285Z,74.32
2019-02-02T16:45:19.543Z,74.95
2019-02-02T16:47:47.951Z,72.97
2019-02-02T16:50:18.007Z,73.15
2019-02-02T16:52:46.827Z,73.90
2019-02-02T16:55:17.567Z,75.75
2019-02-02T16:57:45.981Z,75.80
2019-02-02T17:00:19.918Z,73.17
2019-02-02T17:02:48.410Z,73.20
2019-02-02T17:05:16.845Z,71.05
2019-02-02T17:07:46.388Z,70.85
2019-02-02T17:10:21.356Z,73.47
2019-02-02T17:12:49.764Z,71.77
2019-02-02T17:15:18.246Z,70.97
2019-02-02T17:17:46.651Z,72.32
2019-02-02T17:20:20.813Z,69.05
2019-02-02T17:22:49.294Z,73.35
2019-02-02T17:25:22.398Z,74.12
2019-02-02T17:27:50.243Z,70.55
2019-02-02T17:30:21.048Z,73.40
2019-02-02T17:32:51.086Z,72.22
2019-02-02T17:35:19.491Z,74.62
2019-02-02T17:37:47.917Z,71.97
2019-02-02T17:40:21.744Z,73.62
2019-02-02T17:42:50.253Z,74.35
2019-02-02T17:45:20.497Z,73.92
2019-02-02T17:47:53.321Z,74.60
2019-02-02T17:50:28.659Z,78.03
2019-02-02T17:52:57.078Z,73.37
2019-02-02T17:55:25.753Z,73.95
2019-02-02T17:57:54.167Z,76.55
2019-02-02T18:00:27.035Z,77.40
2019-02-02T18:02:55.440Z,77.05
2019-02-02T18:05:23.860Z,80.00
2019-02-02T18:07:52.264Z,74.07
2019-02-02T18:10:26.151Z,77.08
2019-02-02T18:12:54.650Z,78.05
2019-02-02T18:15:23.063Z,77.80
2019-02-02T18:17:51.485Z,80.42
2019-02-02T18:20:19.903Z,76.40
2019-02-02T18:22:48.317Z,77.92
2019-02-02T18:25:19.780Z,73.55
2019-02-02T18:27:48.188Z,78.83
2019-02-02T18:30:21.952Z,75.52
2019-02-02T18:32:50.359Z,77.87
2019-02-02T18:35:18.961Z,76.70
2019-02-02T18:37:47.446Z,74.03
2019-02-02T18:40:23.145Z,75.40
2019-02-02T18:42:51.558Z,76.30
2019-02-02T18:45:25.411Z,77.12
2019-02-02T18:47:53.948Z,79.62
2019-02-02T18:50:22.374Z,76.33
2019-02-02T18:52:53.012Z,75.55
2019-02-02T18:55:30.462Z,71.72
2019-02-02T18:57:58.909Z,73.75
2019-02-02T19:00:27.324Z,71.47
2019-02-02T19:02:55.760Z,70.00
2019-02-02T19:05:24.194Z,71.82
2019-02-02T19:07:52.598Z,73.60
2019-02-02T19:10:23.841Z,73.50
2019-02-02T19:12:52.258Z,73.60
2019-02-02T19:15:20.834Z,73.40
2019-02-02T19:17:49.292Z,72.60
2019-02-02T19:20:20.325Z,70.65
2019-02-02T19:22:48.808Z,74.65
2019-02-02T19:25:17.317Z,68.55
2019-02-02T19:27:45.718Z,71.72
2019-02-02T19:30:20.065Z,69.45
2019-02-02T19:32:48.538Z,70.50
2019-02-02T19:35:16.991Z,69.15
2019-02-02T19:37:45.425Z,69.07
2019-02-02T19:40:15.932Z,68.80
2019-02-02T19:42:44.415Z,67.40
2019-02-02T19:45:18.093Z,67.10
2019-02-02T19:47:46.496Z,69.37
2019-02-02T19:50:17.980Z,69.47
2019-02-02T19:52:46.430Z,70.80
2019-02-02T19:55:15.194Z,65.57
2019-02-02T19:57:43.682Z,67.30
2019-02-02T20:00:18.113Z,70.50
2019-02-02T20:02:46.538Z,69.60
2019-02-02T20:05:15.016Z,67.87
2019-02-02T20:07:43.452Z,69.75
2019-02-02T20:10:14.572Z,68.90
2019-02-02T20:12:43.071Z,71.92
2019-02-02T20:15:15.053Z,68.83
2019-02-02T20:17:45.507Z,68.22
2019-02-02T20:20:24.803Z,72.30
2019-02-02T20:22:53.466Z,66.53
2019-02-02T20:25:22.252Z,70.10
2019-02-02T20:27:50.656Z,71.15
2019-02-02T20:30:21.672Z,68.90
2019-02-02T20:32:50.172Z,68.02
2019-02-02T20:35:18.572Z,71.90
2019-02-02T20:37:47.054Z,68.28
2019-02-02T20:40:20.057Z,73.02
2019-02-02T20:42:48.535Z,67.78
2019-02-02T20:45:22.197Z,67.78
2019-02-02T20:47:50.890Z,68.17
2019-02-02T20:50:19.718Z,67.25
2019-02-02T20:52:48.146Z,69.30
2019-02-02T20:55:19.187Z,67.10
2019-02-02T20:57:48.072Z,68.60
2019-02-02T21:00:21.842Z,67.60
2019-02-02T21:02:50.323Z,65.03
2019-02-02T21:05:18.921Z,66.12
2019-02-02T21:07:47.470Z,66.10
2019-02-02T21:10:18.223Z,65.37
2019-02-02T21:12:46.653Z,66.10
2019-02-02T21:15:15.748Z,67.20
2019-02-02T21:17:45.084Z,65.42
2019-02-02T21:20:16.485Z,66.15
2019-02-02T21:22:45.031Z,67.55
2019-02-02T21:25:15.010Z,69.50
2019-02-02T21:27:43.416Z,70.92
2019-02-02T21:30:15.031Z,64.90
2019-02-02T21:32:43.445Z,69.65
2019-02-02T21:35:11.839Z,66.33
2019-02-02T21:37:40.523Z,65.75
2019-02-02T21:40:14.473Z,67.35
2019-02-02T21:42:43.175Z,67.12
2019-02-02T21:45:14.172Z,66.30
2019-02-02T21:47:42.699Z,67.23
2019-02-02T21:50:19.861Z,64.72
2019-02-02T21:52:48.387Z,64.00
2019-02-02T21:55:18.853Z,64.67
2019-02-02T21:57:47.524Z,65.80
2019-02-02T22:00:24.284Z,65.85
2019-02-02T22:02:52.705Z,62.80
2019-02-02T22:05:21.131Z,63.02
2019-02-02T22:07:49.547Z,65.45
2019-02-02T22:10:18.088Z,60.28
2019-02-02T22:12:46.495Z,62.95
2019-02-02T22:15:18.182Z,62.27
2019-02-02T22:17:48.204Z,62.48
2019-02-02T22:20:17.947Z,65.55
2019-02-02T22:22:46.587Z,59.15
2019-02-02T22:25:23.283Z,58.53
2019-02-02T22:27:51.810Z,59.45
2019-02-02T22:30:31.556Z,59.80
2019-02-02T22:32:59.971Z,58.92
2019-02-02T22:35:28.372Z,58.45
2019-02-02T22:37:57.175Z,55.65
2019-02-02T22:40:27.536Z,55.38
2019-02-02T22:42:56.362Z,55.50
2019-02-02T22:45:24.790Z,53.08
2019-02-02T22:47:53.323Z,56.45
2019-02-02T22:50:23.758Z,55.80
2019-02-02T22:52:52.269Z,53.50
2019-02-02T22:55:22.551Z,55.78
2019-02-02T22:57:51.047Z,55.10
2019-02-02T23:00:33.147Z,55.08
2019-02-02T23:03:02.217Z,54.40
2019-02-02T23:05:52.991Z,52.70
2019-02-02T23:08:39.625Z,54.83
2019-02-02T23:11:17.031Z,54.40
2019-02-02T23:14:09.717Z,56.77
2019-02-02T23:16:38.119Z,53.90
2019-02-02T23:19:06.812Z,55.70
2019-02-02T23:21:35.228Z,59.98
2019-02-02T23:24:03.640Z,52.98
2019-02-02T23:26:32.057Z,54.60
2019-02-02T23:29:00.469Z,51.75
2019-02-02T23:31:28.948Z,54.73
2019-02-02T23:33:57.372Z,52.95
2019-02-02T23:36:25.768Z,53.40
2019-02-02T23:38:54.186Z,52.98
2019-02-02T23:41:22.600Z,55.20
2019-02-02T23:43:51.001Z,55.48
2019-02-02T23:46:19.407Z,55.55
2019-02-02T23:48:47.820Z,55.33
2019-02-02T23:51:16.227Z,56.23
2019-02-02T23:53:44.620Z,56.98
2019-02-02T23:56:13.024Z,61.00
2019-02-02T23:58:41.700Z,63.63
